sensor_id;sensor_type;location;lat;lon;timestamp;P1;durP1;ratioP1;P2;durP2;ratioP2
21432;SDS011;18592;49.708;10.900;2022-09-27T00:00:17;1.17;;;1.00;;
21432;SDS011;18592;49.708;10.900;2022-09-27T00:02:18;1.33;;;1.23;;
21432;SDS011;18592;49.708;10.900;2022-09-27T00:04:20;1.98;;;1.10;;
21432;SDS011;18592;49.708;10.900;2022-09-27T00:06:26;4.80;;;1.30;;
21432;SDS011;18592;49.708;10.900;2022-09-27T00:08:31;0.98;;;0.80;;
21432;SDS011;18592;49.708;10.900;2022-09-27T00:10:33;2.35;;;1.48;;
21432;SDS011;18592;49.708;10.900;2022-09-27T00:12:37;1.90;;;1.30;;
21432;SDS011;18592;49.708;10.900;2022-09-27T00:14:39;2.50;;;1.20;;
21432;SDS011;18592;49.708;10.900;2022-09-27T00:16:43;1.48;;;1.05;;
21432;SDS011;18592;49.708;10.900;2022-09-27T00:18:45;1.02;;;0.93;;
21432;SDS011;18592;49.708;10.900;2022-09-27T00:20:48;1.63;;;1.10;;
21432;SDS011;18592;49.708;10.900;2022-09-27T00:22:52;1.30;;;1.08;;
21432;SDS011;18592;49.708;10.900;2022-09-27T00:24:54;1.60;;;1.40;;
21432;SDS011;18592;49.708;10.900;2022-09-27T00:26:56;1.63;;;1.30;;
21432;SDS011;18592;49.708;10.900;2022-09-27T00:28:58;0.90;;;0.88;;
21432;SDS011;18592;49.708;10.900;2022-09-27T00:31:00;1.52;;;1.13;;
21432;SDS011;18592;49.708;10.900;2022-09-27T00:33:02;2.03;;;1.20;;
21432;SDS011;18592;49.708;10.900;2022-09-27T00:35:06;1.63;;;1.10;;
21432;SDS011;18592;49.708;10.900;2022-09-27T00:37:07;1.08;;;0.80;;
21432;SDS011;18592;49.708;10.900;2022-09-27T00:39:10;1.88;;;0.88;;
21432;SDS011;18592;49.708;10.900;2022-09-27T00:41:16;1.02;;;0.80;;
21432;SDS011;18592;49.708;10.900;2022-09-27T00:43:20;1.48;;;0.90;;
21432;SDS011;18592;49.708;10.900;2022-09-27T00:45:23;1.13;;;1.00;;
21432;SDS011;18592;49.708;10.900;2022-09-27T00:47:29;0.60;;;0.60;;
21432;SDS011;18592;49.708;10.900;2022-09-27T00:49:32;1.50;;;0.88;;
21432;SDS011;18592;49.708;10.900;2022-09-27T00:51:38;1.63;;;0.80;;
21432;SDS011;18592;49.708;10.900;2022-09-27T00:53:44;0.93;;;0.77;;
21432;SDS011;18592;49.708;10.900;2022-09-27T00:55:58;0.70;;;0.70;;
21432;SDS011;18592;49.708;10.900;2022-09-27T00:58:03;1.83;;;0.90;;
21432;SDS011;18592;49.708;10.900;2022-09-27T01:00:07;0.75;;;0.70;;
21432;SDS011;18592;49.708;10.900;2022-09-27T01:02:11;1.27;;;0.70;;
21432;SDS011;18592;49.708;10.900;2022-09-27T01:04:14;1.00;;;0.85;;
21432;SDS011;18592;49.708;10.900;2022-09-27T01:06:19;1.30;;;0.90;;
21432;SDS011;18592;49.708;10.900;2022-09-27T01:08:23;2.40;;;1.10;;
21432;SDS011;18592;49.708;10.900;2022-09-27T01:10:24;1.13;;;0.98;;
21432;SDS011;18592;49.708;10.900;2022-09-27T01:12:54;3.63;;;1.00;;
21432;SDS011;18592;49.708;10.900;2022-09-27T01:15:07;0.95;;;0.77;;
21432;SDS011;18592;49.708;10.900;2022-09-27T01:22:37;1.52;;;1.02;;
21432;SDS011;18592;49.708;10.900;2022-09-27T01:24:55;2.35;;;1.25;;
21432;SDS011;18592;49.708;10.900;2022-09-27T01:27:16;1.58;;;1.10;;
21432;SDS011;18592;49.708;10.900;2022-09-27T01:32:03;2.83;;;1.10;;
21432;SDS011;18592;49.708;10.900;2022-09-27T01:34:29;2.15;;;1.20;;
21432;SDS011;18592;49.708;10.900;2022-09-27T01:36:46;2.00;;;1.30;;
21432;SDS011;18592;49.708;10.900;2022-09-27T01:41:42;2.05;;;1.35;;
21432;SDS011;18592;49.708;10.900;2022-09-27T01:46:52;2.08;;;1.48;;
21432;SDS011;18592;49.708;10.900;2022-09-27T01:49:15;1.42;;;1.17;;
21432;SDS011;18592;49.708;10.900;2022-09-27T01:51:29;1.45;;;1.20;;
21432;SDS011;18592;49.708;10.900;2022-09-27T01:53:52;1.30;;;1.20;;
21432;SDS011;18592;49.708;10.900;2022-09-27T01:56:17;2.15;;;1.60;;
21432;SDS011;18592;49.708;10.900;2022-09-27T02:00:40;2.17;;;1.40;;
21432;SDS011;18592;49.708;10.900;2022-09-27T02:02:49;1.35;;;1.13;;
21432;SDS011;18592;49.708;10.900;2022-09-27T02:05:08;1.83;;;1.15;;
21432;SDS011;18592;49.708;10.900;2022-09-27T02:07:16;1.80;;;1.38;;
21432;SDS011;18592;49.708;10.900;2022-09-27T02:09:26;2.42;;;1.38;;
21432;SDS011;18592;49.708;10.900;2022-09-27T02:11:53;2.60;;;1.63;;
21432;SDS011;18592;49.708;10.900;2022-09-27T02:14:07;2.38;;;1.40;;
21432;SDS011;18592;49.708;10.900;2022-09-27T02:19:22;1.80;;;1.33;;
21432;SDS011;18592;49.708;10.900;2022-09-27T02:21:45;1.63;;;1.23;;
21432;SDS011;18592;49.708;10.900;2022-09-27T02:23:56;2.15;;;1.38;;
21432;SDS011;18592;49.708;10.900;2022-09-27T02:26:21;2.83;;;1.60;;
21432;SDS011;18592;49.708;10.900;2022-09-27T02:28:34;1.63;;;1.30;;
21432;SDS011;18592;49.708;10.900;2022-09-27T02:30:44;1.85;;;1.30;;
21432;SDS011;18592;49.708;10.900;2022-09-27T02:32:57;1.88;;;1.27;;
21432;SDS011;18592;49.708;10.900;2022-09-27T02:35:00;1.45;;;1.10;;
21432;SDS011;18592;49.708;10.900;2022-09-27T02:37:08;1.92;;;1.20;;
21432;SDS011;18592;49.708;10.900;2022-09-27T02:39:10;1.60;;;1.10;;
21432;SDS011;18592;49.708;10.900;2022-09-27T02:41:16;1.00;;;0.90;;
21432;SDS011;18592;49.708;10.900;2022-09-27T02:43:22;2.40;;;0.93;;
21432;SDS011;18592;49.708;10.900;2022-09-27T02:45:29;1.33;;;1.10;;
21432;SDS011;18592;49.708;10.900;2022-09-27T02:47:48;1.65;;;0.90;;
21432;SDS011;18592;49.708;10.900;2022-09-27T02:50:11;1.10;;;0.98;;
21432;SDS011;18592;49.708;10.900;2022-09-27T02:57:39;1.05;;;0.93;;
21432;SDS011;18592;49.708;10.900;2022-09-27T03:00:07;1.95;;;0.70;;
21432;SDS011;18592;49.708;10.900;2022-09-27T03:02:31;2.35;;;0.80;;
21432;SDS011;18592;49.708;10.900;2022-09-27T03:05:00;1.27;;;0.85;;
21432;SDS011;18592;49.708;10.900;2022-09-27T03:07:06;1.67;;;0.82;;
21432;SDS011;18592;49.708;10.900;2022-09-27T03:09:17;0.95;;;0.77;;
21432;SDS011;18592;49.708;10.900;2022-09-27T03:11:22;1.23;;;0.80;;
21432;SDS011;18592;49.708;10.900;2022-09-27T03:13:27;0.80;;;0.60;;
21432;SDS011;18592;49.708;10.900;2022-09-27T03:15:31;0.65;;;0.65;;
21432;SDS011;18592;49.708;10.900;2022-09-27T03:17:33;1.65;;;0.80;;
21432;SDS011;18592;49.708;10.900;2022-09-27T03:19:57;0.95;;;0.80;;
21432;SDS011;18592;49.708;10.900;2022-09-27T03:22:11;1.38;;;0.80;;
21432;SDS011;18592;49.708;10.900;2022-09-27T03:24:13;0.68;;;0.57;;
21432;SDS011;18592;49.708;10.900;2022-09-27T03:26:14;1.02;;;0.70;;
21432;SDS011;18592;49.708;10.900;2022-09-27T03:28:16;0.47;;;0.45;;
21432;SDS011;18592;49.708;10.900;2022-09-27T03:30:19;1.08;;;0.57;;
21432;SDS011;18592;49.708;10.900;2022-09-27T03:32:21;0.65;;;0.50;;
21432;SDS011;18592;49.708;10.900;2022-09-27T03:34:43;0.55;;;0.55;;
21432;SDS011;18592;49.708;10.900;2022-09-27T03:36:44;1.10;;;0.75;;
21432;SDS011;18592;49.708;10.900;2022-09-27T03:38:50;1.30;;;0.70;;
21432;SDS011;18592;49.708;10.900;2022-09-27T03:40:54;0.77;;;0.63;;
21432;SDS011;18592;49.708;10.900;2022-09-27T03:42:56;1.33;;;0.63;;
21432;SDS011;18592;49.708;10.900;2022-09-27T03:44:59;0.77;;;0.55;;
21432;SDS011;18592;49.708;10.900;2022-09-27T03:47:01;0.47;;;0.40;;
21432;SDS011;18592;49.708;10.900;2022-09-27T03:49:03;0.60;;;0.40;;
21432;SDS011;18592;49.708;10.900;2022-09-27T03:51:05;1.08;;;0.40;;
21432;SDS011;18592;49.708;10.900;2022-09-27T03:53:12;0.40;;;0.40;;
21432;SDS011;18592;49.708;10.900;2022-09-27T03:55:14;1.48;;;0.52;;
21432;SDS011;18592;49.708;10.900;2022-09-27T03:57:16;1.38;;;0.40;;
21432;SDS011;18592;49.708;10.900;2022-09-27T03:59:18;0.50;;;0.50;;
21432;SDS011;18592;49.708;10.900;2022-09-27T04:01:40;0.50;;;0.43;;
21432;SDS011;18592;49.708;10.900;2022-09-27T04:04:03;0.40;;;0.40;;
21432;SDS011;18592;49.708;10.900;2022-09-27T04:06:11;1.58;;;0.50;;
21432;SDS011;18592;49.708;10.900;2022-09-27T04:08:17;0.52;;;0.45;;
21432;SDS011;18592;49.708;10.900;2022-09-27T04:10:21;0.40;;;0.40;;
21432;SDS011;18592;49.708;10.900;2022-09-27T04:12:26;0.40;;;0.40;;
21432;SDS011;18592;49.708;10.900;2022-09-27T04:14:28;0.47;;;0.40;;
21432;SDS011;18592;49.708;10.900;2022-09-27T04:16:48;0.75;;;0.43;;
21432;SDS011;18592;49.708;10.900;2022-09-27T04:19:12;0.73;;;0.40;;
21432;SDS011;18592;49.708;10.900;2022-09-27T04:21:27;0.60;;;0.50;;
21432;SDS011;18592;49.708;10.900;2022-09-27T04:23:32;0.80;;;0.40;;
21432;SDS011;18592;49.708;10.900;2022-09-27T04:25:34;1.08;;;0.60;;
21432;SDS011;18592;49.708;10.900;2022-09-27T04:27:43;0.20;;;0.20;;
21432;SDS011;18592;49.708;10.900;2022-09-27T04:29:46;0.40;;;0.35;;
21432;SDS011;18592;49.708;10.900;2022-09-27T04:32:19;0.77;;;0.50;;
21432;SDS011;18592;49.708;10.900;2022-09-27T04:34:47;1.10;;;0.57;;
21432;SDS011;18592;49.708;10.900;2022-09-27T04:37:07;0.60;;;0.50;;
21432;SDS011;18592;49.708;10.900;2022-09-27T04:39:15;1.17;;;0.50;;
21432;SDS011;18592;49.708;10.900;2022-09-27T04:41:18;1.60;;;0.93;;
21432;SDS011;18592;49.708;10.900;2022-09-27T04:43:21;0.70;;;0.40;;
21432;SDS011;18592;49.708;10.900;2022-09-27T04:45:23;1.05;;;0.43;;
21432;SDS011;18592;49.708;10.900;2022-09-27T04:47:28;0.88;;;0.35;;
21432;SDS011;18592;49.708;10.900;2022-09-27T04:49:39;1.23;;;0.50;;
21432;SDS011;18592;49.708;10.900;2022-09-27T04:51:40;0.43;;;0.43;;
21432;SDS011;18592;49.708;10.900;2022-09-27T04:53:43;1.48;;;0.50;;
21432;SDS011;18592;49.708;10.900;2022-09-27T04:55:45;0.30;;;0.30;;
21432;SDS011;18592;49.708;10.900;2022-09-27T04:57:48;0.50;;;0.30;;
21432;SDS011;18592;49.708;10.900;2022-09-27T04:59:50;1.00;;;0.50;;
21432;SDS011;18592;49.708;10.900;2022-09-27T05:01:54;0.57;;;0.40;;
21432;SDS011;18592;49.708;10.900;2022-09-27T05:04:21;0.55;;;0.40;;
21432;SDS011;18592;49.708;10.900;2022-09-27T05:06:25;0.60;;;0.40;;
21432;SDS011;18592;49.708;10.900;2022-09-27T05:08:30;1.33;;;0.45;;
21432;SDS011;18592;49.708;10.900;2022-09-27T05:10:51;0.68;;;0.45;;
21432;SDS011;18592;49.708;10.900;2022-09-27T05:12:56;2.05;;;0.63;;
21432;SDS011;18592;49.708;10.900;2022-09-27T05:14:58;1.15;;;0.50;;
21432;SDS011;18592;49.708;10.900;2022-09-27T05:17:18;2.20;;;0.60;;
21432;SDS011;18592;49.708;10.900;2022-09-27T05:19:41;1.52;;;0.40;;
21432;SDS011;18592;49.708;10.900;2022-09-27T05:21:53;1.00;;;0.40;;
21432;SDS011;18592;49.708;10.900;2022-09-27T05:23:55;0.55;;;0.40;;
21432;SDS011;18592;49.708;10.900;2022-09-27T05:25:56;0.50;;;0.50;;
21432;SDS011;18592;49.708;10.900;2022-09-27T05:28:02;0.73;;;0.50;;
21432;SDS011;18592;49.708;10.900;2022-09-27T05:30:04;1.02;;;0.60;;
21432;SDS011;18592;49.708;10.900;2022-09-27T05:32:16;1.00;;;0.40;;
21432;SDS011;18592;49.708;10.900;2022-09-27T05:34:27;0.60;;;0.30;;
21432;SDS011;18592;49.708;10.900;2022-09-27T05:36:31;1.30;;;0.32;;
21432;SDS011;18592;49.708;10.900;2022-09-27T05:38:33;0.63;;;0.32;;
21432;SDS011;18592;49.708;10.900;2022-09-27T05:40:36;1.98;;;0.60;;
21432;SDS011;18592;49.708;10.900;2022-09-27T05:42:43;1.02;;;0.45;;
21432;SDS011;18592;49.708;10.900;2022-09-27T05:44:48;0.60;;;0.43;;
21432;SDS011;18592;49.708;10.900;2022-09-27T05:46:59;1.13;;;0.60;;
21432;SDS011;18592;49.708;10.900;2022-09-27T05:49:05;1.20;;;0.50;;
21432;SDS011;18592;49.708;10.900;2022-09-27T05:51:07;1.23;;;0.50;;
21432;SDS011;18592;49.708;10.900;2022-09-27T05:53:12;1.05;;;0.50;;
21432;SDS011;18592;49.708;10.900;2022-09-27T05:55:15;0.75;;;0.50;;
21432;SDS011;18592;49.708;10.900;2022-09-27T05:57:20;0.80;;;0.50;;
21432;SDS011;18592;49.708;10.900;2022-09-27T05:59:30;0.63;;;0.45;;
21432;SDS011;18592;49.708;10.900;2022-09-27T06:01:50;1.00;;;0.55;;
21432;SDS011;18592;49.708;10.900;2022-09-27T06:04:26;0.98;;;0.60;;
21432;SDS011;18592;49.708;10.900;2022-09-27T06:06:50;2.42;;;0.60;;
21432;SDS011;18592;49.708;10.900;2022-09-27T06:08:55;1.30;;;0.50;;
21432;SDS011;18592;49.708;10.900;2022-09-27T06:10:59;2.40;;;0.57;;
21432;SDS011;18592;49.708;10.900;2022-09-27T06:13:15;1.30;;;0.70;;
21432;SDS011;18592;49.708;10.900;2022-09-27T06:15:17;0.63;;;0.52;;
21432;SDS011;18592;49.708;10.900;2022-09-27T06:17:20;1.70;;;0.50;;
21432;SDS011;18592;49.708;10.900;2022-09-27T06:19:22;1.88;;;0.60;;
21432;SDS011;18592;49.708;10.900;2022-09-27T06:21:27;1.42;;;0.70;;
21432;SDS011;18592;49.708;10.900;2022-09-27T06:23:31;1.02;;;0.50;;
21432;SDS011;18592;49.708;10.900;2022-09-27T06:25:42;0.88;;;0.35;;
21432;SDS011;18592;49.708;10.900;2022-09-27T06:27:53;2.22;;;0.50;;
21432;SDS011;18592;49.708;10.900;2022-09-27T06:29:58;1.17;;;0.50;;
21432;SDS011;18592;49.708;10.900;2022-09-27T06:32:38;1.13;;;0.50;;
21432;SDS011;18592;49.708;10.900;2022-09-27T06:34:54;0.90;;;0.60;;
21432;SDS011;18592;49.708;10.900;2022-09-27T06:36:56;1.48;;;0.50;;
21432;SDS011;18592;49.708;10.900;2022-09-27T06:38:59;0.40;;;0.40;;
21432;SDS011;18592;49.708;10.900;2022-09-27T06:41:25;2.58;;;0.63;;
21432;SDS011;18592;49.708;10.900;2022-09-27T06:43:26;1.05;;;0.40;;
21432;SDS011;18592;49.708;10.900;2022-09-27T06:46:07;0.40;;;0.40;;
21432;SDS011;18592;49.708;10.900;2022-09-27T06:48:28;1.02;;;0.50;;
21432;SDS011;18592;49.708;10.900;2022-09-27T06:50:46;1.80;;;0.50;;
21432;SDS011;18592;49.708;10.900;2022-09-27T06:52:49;0.47;;;0.40;;
21432;SDS011;18592;49.708;10.900;2022-09-27T06:54:52;0.63;;;0.40;;
21432;SDS011;18592;49.708;10.900;2022-09-27T06:56:54;0.85;;;0.40;;
21432;SDS011;18592;49.708;10.900;2022-09-27T06:59:03;0.75;;;0.40;;
21432;SDS011;18592;49.708;10.900;2022-09-27T07:01:27;1.13;;;0.40;;
21432;SDS011;18592;49.708;10.900;2022-09-27T07:03:51;0.80;;;0.40;;
21432;SDS011;18592;49.708;10.900;2022-09-27T07:06:17;0.85;;;0.50;;
21432;SDS011;18592;49.708;10.900;2022-09-27T07:08:32;0.68;;;0.43;;
21432;SDS011;18592;49.708;10.900;2022-09-27T07:10:36;0.50;;;0.38;;
21432;SDS011;18592;49.708;10.900;2022-09-27T07:12:39;0.38;;;0.38;;
21432;SDS011;18592;49.708;10.900;2022-09-27T07:14:43;1.33;;;0.35;;
21432;SDS011;18592;49.708;10.900;2022-09-27T07:16:48;1.48;;;0.60;;
21432;SDS011;18592;49.708;10.900;2022-09-27T07:18:51;0.52;;;0.40;;
21432;SDS011;18592;49.708;10.900;2022-09-27T07:20:53;0.50;;;0.50;;
21432;SDS011;18592;49.708;10.900;2022-09-27T07:23:00;1.52;;;0.63;;
21432;SDS011;18592;49.708;10.900;2022-09-27T07:25:02;0.70;;;0.65;;
21432;SDS011;18592;49.708;10.900;2022-09-27T07:27:05;1.05;;;0.80;;
21432;SDS011;18592;49.708;10.900;2022-09-27T07:29:07;1.00;;;0.70;;
21432;SDS011;18592;49.708;10.900;2022-09-27T07:31:09;0.77;;;0.50;;
21432;SDS011;18592;49.708;10.900;2022-09-27T07:33:11;1.10;;;0.52;;
21432;SDS011;18592;49.708;10.900;2022-09-27T07:35:13;0.77;;;0.55;;
21432;SDS011;18592;49.708;10.900;2022-09-27T07:37:17;0.75;;;0.47;;
21432;SDS011;18592;49.708;10.900;2022-09-27T07:39:20;1.75;;;0.50;;
21432;SDS011;18592;49.708;10.900;2022-09-27T07:41:23;0.32;;;0.30;;
21432;SDS011;18592;49.708;10.900;2022-09-27T07:43:27;0.90;;;0.45;;
21432;SDS011;18592;49.708;10.900;2022-09-27T07:45:33;0.30;;;0.30;;
21432;SDS011;18592;49.708;10.900;2022-09-27T07:47:58;0.38;;;0.30;;
21432;SDS011;18592;49.708;10.900;2022-09-27T07:50:26;0.65;;;0.45;;
21432;SDS011;18592;49.708;10.900;2022-09-27T07:52:38;0.63;;;0.45;;
21432;SDS011;18592;49.708;10.900;2022-09-27T07:55:09;1.50;;;0.50;;
21432;SDS011;18592;49.708;10.900;2022-09-27T07:57:30;0.70;;;0.40;;
21432;SDS011;18592;49.708;10.900;2022-09-27T07:59:33;0.35;;;0.35;;
21432;SDS011;18592;49.708;10.900;2022-09-27T08:01:37;1.30;;;0.43;;
21432;SDS011;18592;49.708;10.900;2022-09-27T08:03:39;0.55;;;0.30;;
21432;SDS011;18592;49.708;10.900;2022-09-27T08:05:44;0.30;;;0.30;;
21432;SDS011;18592;49.708;10.900;2022-09-27T08:07:50;0.75;;;0.40;;
21432;SDS011;18592;49.708;10.900;2022-09-27T08:09:56;0.43;;;0.40;;
21432;SDS011;18592;49.708;10.900;2022-09-27T08:12:00;0.47;;;0.40;;
21432;SDS011;18592;49.708;10.900;2022-09-27T08:14:04;0.30;;;0.30;;
21432;SDS011;18592;49.708;10.900;2022-09-27T08:16:08;0.98;;;0.65;;
21432;SDS011;18592;49.708;10.900;2022-09-27T08:18:30;0.30;;;0.30;;
21432;SDS011;18592;49.708;10.900;2022-09-27T08:20:34;0.73;;;0.40;;
21432;SDS011;18592;49.708;10.900;2022-09-27T08:22:51;0.90;;;0.40;;
21432;SDS011;18592;49.708;10.900;2022-09-27T08:25:02;1.45;;;0.40;;
21432;SDS011;18592;49.708;10.900;2022-09-27T08:27:17;0.50;;;0.40;;
21432;SDS011;18592;49.708;10.900;2022-09-27T08:29:21;0.30;;;0.30;;
21432;SDS011;18592;49.708;10.900;2022-09-27T08:31:26;0.70;;;0.40;;
21432;SDS011;18592;49.708;10.900;2022-09-27T08:33:30;1.05;;;0.30;;
21432;SDS011;18592;49.708;10.900;2022-09-27T08:35:36;0.88;;;0.50;;
21432;SDS011;18592;49.708;10.900;2022-09-27T08:37:40;0.52;;;0.30;;
21432;SDS011;18592;49.708;10.900;2022-09-27T08:39:42;1.25;;;0.40;;
21432;SDS011;18592;49.708;10.900;2022-09-27T08:41:51;0.20;;;0.20;;
21432;SDS011;18592;49.708;10.900;2022-09-27T08:44:08;0.85;;;0.40;;
21432;SDS011;18592;49.708;10.900;2022-09-27T08:49:32;0.63;;;0.40;;
21432;SDS011;18592;49.708;10.900;2022-09-27T08:51:39;0.65;;;0.50;;
21432;SDS011;18592;49.708;10.900;2022-09-27T08:53:45;0.98;;;0.50;;
21432;SDS011;18592;49.708;10.900;2022-09-27T08:55:57;0.40;;;0.40;;
21432;SDS011;18592;49.708;10.900;2022-09-27T09:00:29;0.30;;;0.30;;
21432;SDS011;18592;49.708;10.900;2022-09-27T09:02:31;0.43;;;0.32;;
21432;SDS011;18592;49.708;10.900;2022-09-27T09:04:35;0.52;;;0.30;;
21432;SDS011;18592;49.708;10.900;2022-09-27T09:06:56;0.50;;;0.38;;
21432;SDS011;18592;49.708;10.900;2022-09-27T09:09:33;0.20;;;0.20;;
21432;SDS011;18592;49.708;10.900;2022-09-27T09:11:47;0.63;;;0.40;;
21432;SDS011;18592;49.708;10.900;2022-09-27T09:14:41;0.68;;;0.40;;
21432;SDS011;18592;49.708;10.900;2022-09-27T09:16:52;1.15;;;0.40;;
21432;SDS011;18592;49.708;10.900;2022-09-27T09:22:05;0.60;;;0.40;;
21432;SDS011;18592;49.708;10.900;2022-09-27T09:27:22;0.95;;;0.47;;
21432;SDS011;18592;49.708;10.900;2022-09-27T09:29:54;0.52;;;0.40;;
21432;SDS011;18592;49.708;10.900;2022-09-27T09:32:38;0.40;;;0.30;;
21432;SDS011;18592;49.708;10.900;2022-09-27T09:34:47;0.45;;;0.45;;
21432;SDS011;18592;49.708;10.900;2022-09-27T09:39:07;1.48;;;0.40;;
21432;SDS011;18592;49.708;10.900;2022-09-27T09:41:19;0.47;;;0.40;;
21432;SDS011;18592;49.708;10.900;2022-09-27T09:45:57;0.40;;;0.40;;
21432;SDS011;18592;49.708;10.900;2022-09-27T09:48:29;0.30;;;0.30;;
21432;SDS011;18592;49.708;10.900;2022-09-27T09:50:46;0.40;;;0.40;;
21432;SDS011;18592;49.708;10.900;2022-09-27T09:52:53;0.98;;;0.50;;
21432;SDS011;18592;49.708;10.900;2022-09-27T09:59:50;0.73;;;0.52;;
21432;SDS011;18592;49.708;10.900;2022-09-27T10:01:57;1.58;;;1.00;;
21432;SDS011;18592;49.708;10.900;2022-09-27T10:04:17;1.63;;;0.90;;
21432;SDS011;18592;49.708;10.900;2022-09-27T10:06:26;1.40;;;0.93;;
21432;SDS011;18592;49.708;10.900;2022-09-27T10:08:32;2.30;;;0.93;;
21432;SDS011;18592;49.708;10.900;2022-09-27T10:10:53;1.80;;;1.00;;
21432;SDS011;18592;49.708;10.900;2022-09-27T10:13:21;2.28;;;0.90;;
21432;SDS011;18592;49.708;10.900;2022-09-27T10:15:33;1.00;;;0.70;;
21432;SDS011;18592;49.708;10.900;2022-09-27T10:17:37;0.82;;;0.60;;
21432;SDS011;18592;49.708;10.900;2022-09-27T10:22:34;2.08;;;0.77;;
21432;SDS011;18592;49.708;10.900;2022-09-27T10:25:00;1.23;;;0.80;;
21432;SDS011;18592;49.708;10.900;2022-09-27T10:27:27;1.25;;;0.77;;
21432;SDS011;18592;49.708;10.900;2022-09-27T10:29:41;0.95;;;0.70;;
21432;SDS011;18592;49.708;10.900;2022-09-27T10:31:52;0.73;;;0.70;;
21432;SDS011;18592;49.708;10.900;2022-09-27T10:34:01;0.82;;;0.60;;
21432;SDS011;18592;49.708;10.900;2022-09-27T10:36:23;1.35;;;0.82;;
21432;SDS011;18592;49.708;10.900;2022-09-27T10:38:28;1.83;;;1.10;;
21432;SDS011;18592;49.708;10.900;2022-09-27T10:41:15;1.55;;;0.90;;
21432;SDS011;18592;49.708;10.900;2022-09-27T10:43:33;1.48;;;0.90;;
21432;SDS011;18592;49.708;10.900;2022-09-27T10:46:01;1.63;;;0.82;;
21432;SDS011;18592;49.708;10.900;2022-09-27T10:48:17;1.27;;;0.90;;
21432;SDS011;18592;49.708;10.900;2022-09-27T10:50:31;1.75;;;0.80;;
21432;SDS011;18592;49.708;10.900;2022-09-27T10:55:05;1.65;;;0.95;;
21432;SDS011;18592;49.708;10.900;2022-09-27T10:57:21;1.35;;;1.00;;
21432;SDS011;18592;49.708;10.900;2022-09-27T10:59:26;1.88;;;1.33;;
21432;SDS011;18592;49.708;10.900;2022-09-27T11:01:37;1.92;;;0.90;;
21432;SDS011;18592;49.708;10.900;2022-09-27T11:03:52;1.67;;;1.00;;
21432;SDS011;18592;49.708;10.900;2022-09-27T11:05:59;0.80;;;0.77;;
21432;SDS011;18592;49.708;10.900;2022-09-27T11:10:59;1.65;;;0.98;;
21432;SDS011;18592;49.708;10.900;2022-09-27T11:13:21;2.30;;;0.80;;
21432;SDS011;18592;49.708;10.900;2022-09-27T11:15:26;1.40;;;0.98;;
21432;SDS011;18592;49.708;10.900;2022-09-27T11:17:45;1.48;;;1.00;;
21432;SDS011;18592;49.708;10.900;2022-09-27T11:20:13;2.00;;;0.90;;
21432;SDS011;18592;49.708;10.900;2022-09-27T11:23:11;1.02;;;0.55;;
21432;SDS011;18592;49.708;10.900;2022-09-27T11:25:55;0.80;;;0.50;;
21432;SDS011;18592;49.708;10.900;2022-09-27T11:33:57;0.50;;;0.50;;
21432;SDS011;18592;49.708;10.900;2022-09-27T11:43:40;0.73;;;0.47;;
21432;SDS011;18592;49.708;10.900;2022-09-27T11:46:00;0.43;;;0.40;;
21432;SDS011;18592;49.708;10.900;2022-09-27T11:53:08;0.80;;;0.30;;
21432;SDS011;18592;49.708;10.900;2022-09-27T11:57:38;0.45;;;0.30;;
21432;SDS011;18592;49.708;10.900;2022-09-27T12:00:04;0.40;;;0.40;;
21432;SDS011;18592;49.708;10.900;2022-09-27T12:10:11;0.32;;;0.30;;
21432;SDS011;18592;49.708;10.900;2022-09-27T12:12:24;0.57;;;0.40;;
21432;SDS011;18592;49.708;10.900;2022-09-27T12:16:38;1.35;;;0.60;;
21432;SDS011;18592;49.708;10.900;2022-09-27T12:18:42;0.80;;;0.70;;
21432;SDS011;18592;49.708;10.900;2022-09-27T12:21:10;0.50;;;0.50;;
21432;SDS011;18592;49.708;10.900;2022-09-27T12:23:24;1.05;;;0.50;;
21432;SDS011;18592;49.708;10.900;2022-09-27T12:25:51;1.02;;;0.40;;
21432;SDS011;18592;49.708;10.900;2022-09-27T12:30:10;0.63;;;0.40;;
21432;SDS011;18592;49.708;10.900;2022-09-27T12:32:17;1.13;;;0.40;;
21432;SDS011;18592;49.708;10.900;2022-09-27T12:34:24;0.65;;;0.30;;
21432;SDS011;18592;49.708;10.900;2022-09-27T12:36:34;0.77;;;0.40;;
21432;SDS011;18592;49.708;10.900;2022-09-27T12:38:45;0.73;;;0.45;;
21432;SDS011;18592;49.708;10.900;2022-09-27T12:40:54;1.05;;;0.63;;
21432;SDS011;18592;49.708;10.900;2022-09-27T12:43:15;1.80;;;0.70;;
21432;SDS011;18592;49.708;10.900;2022-09-27T12:45:54;1.48;;;0.60;;
21432;SDS011;18592;49.708;10.900;2022-09-27T12:52:40;0.90;;;0.40;;
21432;SDS011;18592;49.708;10.900;2022-09-27T12:55:02;0.40;;;0.35;;
21432;SDS011;18592;49.708;10.900;2022-09-27T12:57:46;0.20;;;0.20;;
21432;SDS011;18592;49.708;10.900;2022-09-27T13:08:25;0.30;;;0.30;;
21432;SDS011;18592;49.708;10.900;2022-09-27T13:10:34;0.63;;;0.40;;
21432;SDS011;18592;49.708;10.900;2022-09-27T13:12:53;1.30;;;0.55;;
21432;SDS011;18592;49.708;10.900;2022-09-27T13:15:02;0.63;;;0.50;;
21432;SDS011;18592;49.708;10.900;2022-09-27T13:17:30;1.73;;;0.50;;
21432;SDS011;18592;49.708;10.900;2022-09-27T13:19:42;0.75;;;0.38;;
21432;SDS011;18592;49.708;10.900;2022-09-27T13:23:57;0.70;;;0.57;;
21432;SDS011;18592;49.708;10.900;2022-09-27T13:26:41;0.60;;;0.50;;
21432;SDS011;18592;49.708;10.900;2022-09-27T13:31:15;0.40;;;0.35;;
21432;SDS011;18592;49.708;10.900;2022-09-27T13:36:07;2.13;;;0.70;;
21432;SDS011;18592;49.708;10.900;2022-09-27T13:38:20;1.02;;;0.70;;
21432;SDS011;18592;49.708;10.900;2022-09-27T13:42:46;0.40;;;0.40;;
21432;SDS011;18592;49.708;10.900;2022-09-27T13:45:31;0.30;;;0.30;;
21432;SDS011;18592;49.708;10.900;2022-09-27T13:47:36;0.77;;;0.50;;
21432;SDS011;18592;49.708;10.900;2022-09-27T13:52:38;0.40;;;0.32;;
21432;SDS011;18592;49.708;10.900;2022-09-27T13:54:50;0.50;;;0.30;;
21432;SDS011;18592;49.708;10.900;2022-09-27T13:56:54;1.67;;;0.40;;
21432;SDS011;18592;49.708;10.900;2022-09-27T13:58:58;0.25;;;0.25;;
21432;SDS011;18592;49.708;10.900;2022-09-27T14:05:33;0.20;;;0.20;;
21432;SDS011;18592;49.708;10.900;2022-09-27T14:07:40;0.50;;;0.22;;
21432;SDS011;18592;49.708;10.900;2022-09-27T14:09:46;0.20;;;0.20;;
21432;SDS011;18592;49.708;10.900;2022-09-27T14:11:59;0.25;;;0.25;;
21432;SDS011;18592;49.708;10.900;2022-09-27T14:14:13;0.22;;;0.20;;
21432;SDS011;18592;49.708;10.900;2022-09-27T14:16:22;0.22;;;0.22;;
21432;SDS011;18592;49.708;10.900;2022-09-27T14:18:32;0.47;;;0.30;;
21432;SDS011;18592;49.708;10.900;2022-09-27T14:20:41;0.30;;;0.30;;
21432;SDS011;18592;49.708;10.900;2022-09-27T14:23:15;0.82;;;0.38;;
21432;SDS011;18592;49.708;10.900;2022-09-27T14:25:23;1.35;;;0.40;;
21432;SDS011;18592;49.708;10.900;2022-09-27T14:27:27;0.85;;;0.40;;
21432;SDS011;18592;49.708;10.900;2022-09-27T14:29:42;1.25;;;0.40;;
21432;SDS011;18592;49.708;10.900;2022-09-27T14:32:08;1.13;;;0.50;;
21432;SDS011;18592;49.708;10.900;2022-09-27T14:34:23;0.38;;;0.38;;
21432;SDS011;18592;49.708;10.900;2022-09-27T14:36:29;0.63;;;0.40;;
21432;SDS011;18592;49.708;10.900;2022-09-27T14:38:54;1.42;;;0.40;;
21432;SDS011;18592;49.708;10.900;2022-09-27T14:41:01;0.45;;;0.30;;
21432;SDS011;18592;49.708;10.900;2022-09-27T14:43:16;0.40;;;0.40;;
21432;SDS011;18592;49.708;10.900;2022-09-27T14:45:31;0.52;;;0.40;;
21432;SDS011;18592;49.708;10.900;2022-09-27T14:47:41;0.45;;;0.40;;
21432;SDS011;18592;49.708;10.900;2022-09-27T14:49:48;0.30;;;0.30;;
21432;SDS011;18592;49.708;10.900;2022-09-27T14:51:52;0.70;;;0.40;;
21432;SDS011;18592;49.708;10.900;2022-09-27T14:53:56;0.30;;;0.30;;